Terminal Aerodrome Forecast
Issued by NWS Wilmington, OH

Current Version | Previous Version | Graphics & Text | Print | Product List | Glossary On
Versions: 1 2 3 4 5 6 7 8 9 10 11 12 13 14 15 16 17 18 19 20 21 22 23 24 25 26 27 28 29
000
FTUS41 KILN 161100
TAFCVG
TAF
KCVG 161127Z 1612/1718 01006KT P6SM OVC015
     FM161300 01008KT P6SM OVC008
     FM161500 01008KT P6SM OVC015
     FM161800 01008KT P6SM BKN025
     FM162000 36008KT P6SM SCT035
     FM170000 VRB03KT P6SM SKC
     FM170900 VRB03KT 4SM BR SKC
     FM171200 VRB03KT P6SM FEW015=

USA.gov is the U.S. government's official web portal to all federal, state and local government web resources and services.